sensor_id;sensor_type;location;lat;lon;timestamp;P1;durP1;ratioP1;P2;durP2;ratioP2
18136;SDS011;9194;42.632;23.298;2023-09-07T00:04:18;15.55;;;8.75;;
18136;SDS011;9194;42.632;23.298;2023-09-07T00:09:20;13.43;;;8.75;;
18136;SDS011;9194;42.632;23.298;2023-09-07T00:14:22;12.38;;;8.75;;
18136;SDS011;9194;42.632;23.298;2023-09-07T00:19:24;15.88;;;9.32;;
18136;SDS011;9194;42.632;23.298;2023-09-07T00:24:25;13.52;;;10.05;;
18136;SDS011;9194;42.632;23.298;2023-09-07T00:29:26;19.92;;;12.00;;
18136;SDS011;9194;42.632;23.298;2023-09-07T00:34:27;17.48;;;13.05;;
18136;SDS011;9194;42.632;23.298;2023-09-07T00:39:29;25.17;;;12.52;;
18136;SDS011;9194;42.632;23.298;2023-09-07T00:44:30;15.27;;;10.90;;
18136;SDS011;9194;42.632;23.298;2023-09-07T00:49:31;18.00;;;10.63;;
18136;SDS011;9194;42.632;23.298;2023-09-07T00:54:33;19.85;;;13.55;;
18136;SDS011;9194;42.632;23.298;2023-09-07T00:59:35;25.45;;;13.13;;
18136;SDS011;9194;42.632;23.298;2023-09-07T01:04:37;17.00;;;12.80;;
18136;SDS011;9194;42.632;23.298;2023-09-07T01:09:38;20.98;;;13.13;;
18136;SDS011;9194;42.632;23.298;2023-09-07T01:14:43;17.92;;;12.80;;
18136;SDS011;9194;42.632;23.298;2023-09-07T01:19:44;19.60;;;12.18;;
18136;SDS011;9194;42.632;23.298;2023-09-07T01:24:47;18.50;;;12.48;;
18136;SDS011;9194;42.632;23.298;2023-09-07T01:29:51;17.45;;;12.32;;
18136;SDS011;9194;42.632;23.298;2023-09-07T01:34:54;20.45;;;11.68;;
18136;SDS011;9194;42.632;23.298;2023-09-07T01:39:58;23.20;;;13.73;;
18136;SDS011;9194;42.632;23.298;2023-09-07T01:45:00;17.15;;;12.90;;
18136;SDS011;9194;42.632;23.298;2023-09-07T01:50:01;20.48;;;13.90;;
18136;SDS011;9194;42.632;23.298;2023-09-07T01:55:03;17.98;;;13.50;;
18136;SDS011;9194;42.632;23.298;2023-09-07T02:00:05;18.38;;;12.77;;
18136;SDS011;9194;42.632;23.298;2023-09-07T02:05:14;22.50;;;13.07;;
18136;SDS011;9194;42.632;23.298;2023-09-07T02:10:15;15.55;;;12.18;;
18136;SDS011;9194;42.632;23.298;2023-09-07T02:15:16;18.90;;;11.35;;
18136;SDS011;9194;42.632;23.298;2023-09-07T02:20:17;17.83;;;10.48;;
18136;SDS011;9194;42.632;23.298;2023-09-07T02:25:20;16.88;;;9.43;;
18136;SDS011;9194;42.632;23.298;2023-09-07T02:30:22;11.30;;;8.77;;
18136;SDS011;9194;42.632;23.298;2023-09-07T02:35:23;12.18;;;9.20;;
18136;SDS011;9194;42.632;23.298;2023-09-07T02:40:24;15.05;;;9.13;;
18136;SDS011;9194;42.632;23.298;2023-09-07T02:45:26;14.98;;;9.60;;
18136;SDS011;9194;42.632;23.298;2023-09-07T02:50:32;14.90;;;10.13;;
18136;SDS011;9194;42.632;23.298;2023-09-07T02:55:34;18.42;;;10.90;;
18136;SDS011;9194;42.632;23.298;2023-09-07T03:00:40;19.67;;;9.90;;
18136;SDS011;9194;42.632;23.298;2023-09-07T03:05:45;14.57;;;9.05;;
18136;SDS011;9194;42.632;23.298;2023-09-07T03:10:47;15.57;;;9.50;;
18136;SDS011;9194;42.632;23.298;2023-09-07T03:15:48;16.52;;;11.60;;
18136;SDS011;9194;42.632;23.298;2023-09-07T03:20:50;15.50;;;10.05;;
18136;SDS011;9194;42.632;23.298;2023-09-07T03:25:52;18.60;;;11.32;;
18136;SDS011;9194;42.632;23.298;2023-09-07T03:30:53;15.50;;;11.13;;
18136;SDS011;9194;42.632;23.298;2023-09-07T03:35:55;18.40;;;11.95;;
18136;SDS011;9194;42.632;23.298;2023-09-07T03:41:00;23.92;;;13.13;;
18136;SDS011;9194;42.632;23.298;2023-09-07T03:46:01;17.42;;;12.13;;
18136;SDS011;9194;42.632;23.298;2023-09-07T03:51:06;14.35;;;11.40;;
18136;SDS011;9194;42.632;23.298;2023-09-07T03:56:08;16.25;;;9.02;;
18136;SDS011;9194;42.632;23.298;2023-09-07T04:01:09;11.80;;;8.07;;
18136;SDS011;9194;42.632;23.298;2023-09-07T04:06:10;11.93;;;7.57;;
18136;SDS011;9194;42.632;23.298;2023-09-07T04:11:11;12.13;;;6.95;;
18136;SDS011;9194;42.632;23.298;2023-09-07T04:16:13;9.25;;;5.65;;
18136;SDS011;9194;42.632;23.298;2023-09-07T04:21:14;12.10;;;6.63;;
18136;SDS011;9194;42.632;23.298;2023-09-07T04:26:15;13.80;;;6.85;;
18136;SDS011;9194;42.632;23.298;2023-09-07T04:31:17;8.57;;;6.47;;
18136;SDS011;9194;42.632;23.298;2023-09-07T04:36:18;12.57;;;5.68;;
18136;SDS011;9194;42.632;23.298;2023-09-07T04:41:22;8.75;;;6.47;;
18136;SDS011;9194;42.632;23.298;2023-09-07T04:46:23;11.18;;;6.07;;
18136;SDS011;9194;42.632;23.298;2023-09-07T04:51:24;16.15;;;5.88;;
18136;SDS011;9194;42.632;23.298;2023-09-07T04:56:27;11.27;;;6.18;;
18136;SDS011;9194;42.632;23.298;2023-09-07T05:01:30;6.40;;;5.60;;
18136;SDS011;9194;42.632;23.298;2023-09-07T05:06:32;11.88;;;5.90;;
18136;SDS011;9194;42.632;23.298;2023-09-07T05:11:39;12.35;;;6.22;;
18136;SDS011;9194;42.632;23.298;2023-09-07T05:16:44;11.18;;;6.75;;
18136;SDS011;9194;42.632;23.298;2023-09-07T05:21:45;8.75;;;6.00;;
18136;SDS011;9194;42.632;23.298;2023-09-07T05:26:46;6.78;;;6.07;;
18136;SDS011;9194;42.632;23.298;2023-09-07T05:31:48;12.15;;;5.95;;
18136;SDS011;9194;42.632;23.298;2023-09-07T05:36:49;8.55;;;6.30;;
18136;SDS011;9194;42.632;23.298;2023-09-07T05:41:51;13.52;;;6.43;;
18136;SDS011;9194;42.632;23.298;2023-09-07T05:46:52;6.60;;;5.78;;
18136;SDS011;9194;42.632;23.298;2023-09-07T05:51:53;6.13;;;5.10;;
18136;SDS011;9194;42.632;23.298;2023-09-07T05:56:55;13.48;;;5.68;;
18136;SDS011;9194;42.632;23.298;2023-09-07T06:01:57;7.97;;;5.30;;
18136;SDS011;9194;42.632;23.298;2023-09-07T06:06:58;10.45;;;5.82;;
18136;SDS011;9194;42.632;23.298;2023-09-07T06:12:00;7.88;;;5.75;;
18136;SDS011;9194;42.632;23.298;2023-09-07T06:17:01;6.28;;;5.57;;
18136;SDS011;9194;42.632;23.298;2023-09-07T06:22:03;13.07;;;5.22;;
18136;SDS011;9194;42.632;23.298;2023-09-07T06:27:05;8.35;;;5.85;;
18136;SDS011;9194;42.632;23.298;2023-09-07T06:32:06;9.23;;;6.43;;
18136;SDS011;9194;42.632;23.298;2023-09-07T06:37:08;12.23;;;5.90;;
18136;SDS011;9194;42.632;23.298;2023-09-07T06:42:09;10.63;;;5.60;;
18136;SDS011;9194;42.632;23.298;2023-09-07T06:47:18;9.90;;;5.70;;
18136;SDS011;9194;42.632;23.298;2023-09-07T06:52:20;11.23;;;5.72;;
18136;SDS011;9194;42.632;23.298;2023-09-07T06:57:21;7.10;;;4.90;;
18136;SDS011;9194;42.632;23.298;2023-09-07T07:02:23;11.65;;;5.43;;
18136;SDS011;9194;42.632;23.298;2023-09-07T07:07:24;7.25;;;5.82;;
18136;SDS011;9194;42.632;23.298;2023-09-07T07:12:25;10.65;;;5.53;;
18136;SDS011;9194;42.632;23.298;2023-09-07T07:17:28;10.00;;;6.07;;
18136;SDS011;9194;42.632;23.298;2023-09-07T07:22:29;8.75;;;6.00;;
18136;SDS011;9194;42.632;23.298;2023-09-07T07:27:31;11.98;;;6.95;;
18136;SDS011;9194;42.632;23.298;2023-09-07T07:32:33;13.60;;;7.18;;
18136;SDS011;9194;42.632;23.298;2023-09-07T07:37:34;11.38;;;6.30;;
18136;SDS011;9194;42.632;23.298;2023-09-07T07:42:35;10.77;;;5.88;;
18136;SDS011;9194;42.632;23.298;2023-09-07T07:47:37;15.57;;;6.68;;
18136;SDS011;9194;42.632;23.298;2023-09-07T07:52:38;12.95;;;6.93;;
18136;SDS011;9194;42.632;23.298;2023-09-07T07:57:40;9.20;;;7.78;;
18136;SDS011;9194;42.632;23.298;2023-09-07T08:02:43;10.75;;;6.88;;
18136;SDS011;9194;42.632;23.298;2023-09-07T08:07:46;11.18;;;8.00;;
18136;SDS011;9194;42.632;23.298;2023-09-07T08:12:47;12.68;;;8.18;;
18136;SDS011;9194;42.632;23.298;2023-09-07T08:17:48;11.85;;;7.85;;
18136;SDS011;9194;42.632;23.298;2023-09-07T08:22:50;15.70;;;7.00;;
18136;SDS011;9194;42.632;23.298;2023-09-07T08:27:53;12.25;;;7.95;;
18136;SDS011;9194;42.632;23.298;2023-09-07T08:32:58;11.63;;;7.13;;
18136;SDS011;9194;42.632;23.298;2023-09-07T08:37:59;23.10;;;6.70;;
18136;SDS011;9194;42.632;23.298;2023-09-07T08:43:03;9.65;;;6.32;;
18136;SDS011;9194;42.632;23.298;2023-09-07T08:48:05;10.43;;;6.30;;
18136;SDS011;9194;42.632;23.298;2023-09-07T08:53:07;8.00;;;5.70;;
18136;SDS011;9194;42.632;23.298;2023-09-07T08:58:08;10.75;;;5.43;;
18136;SDS011;9194;42.632;23.298;2023-09-07T09:03:10;14.75;;;6.78;;
18136;SDS011;9194;42.632;23.298;2023-09-07T09:08:11;9.18;;;6.10;;
18136;SDS011;9194;42.632;23.298;2023-09-07T09:13:12;9.88;;;6.05;;
18136;SDS011;9194;42.632;23.298;2023-09-07T09:18:14;9.52;;;6.10;;
18136;SDS011;9194;42.632;23.298;2023-09-07T09:23:15;9.82;;;6.05;;
18136;SDS011;9194;42.632;23.298;2023-09-07T09:28:16;10.77;;;5.72;;
18136;SDS011;9194;42.632;23.298;2023-09-07T09:33:19;5.50;;;4.82;;
18136;SDS011;9194;42.632;23.298;2023-09-07T09:38:21;8.77;;;5.43;;
18136;SDS011;9194;42.632;23.298;2023-09-07T09:43:22;13.70;;;5.00;;
18136;SDS011;9194;42.632;23.298;2023-09-07T09:48:25;8.93;;;5.50;;
18136;SDS011;9194;42.632;23.298;2023-09-07T09:53:28;7.97;;;5.60;;
18136;SDS011;9194;42.632;23.298;2023-09-07T09:58:31;10.32;;;4.72;;
18136;SDS011;9194;42.632;23.298;2023-09-07T10:03:34;7.15;;;5.05;;
18136;SDS011;9194;42.632;23.298;2023-09-07T10:14:07;6.93;;;4.85;;
18136;SDS011;9194;42.632;23.298;2023-09-07T10:19:21;10.27;;;5.03;;
18136;SDS011;9194;42.632;23.298;2023-09-07T10:24:30;6.60;;;4.20;;
18136;SDS011;9194;42.632;23.298;2023-09-07T10:29:43;7.88;;;4.15;;
18136;SDS011;9194;42.632;23.298;2023-09-07T10:34:46;7.53;;;4.30;;
18136;SDS011;9194;42.632;23.298;2023-09-07T10:39:47;8.02;;;4.65;;
18136;SDS011;9194;42.632;23.298;2023-09-07T10:44:48;12.00;;;4.60;;
18136;SDS011;9194;42.632;23.298;2023-09-07T10:49:50;9.38;;;4.93;;
18136;SDS011;9194;42.632;23.298;2023-09-07T10:54:57;12.93;;;4.70;;
18136;SDS011;9194;42.632;23.298;2023-09-07T10:59:58;11.35;;;4.65;;
18136;SDS011;9194;42.632;23.298;2023-09-07T11:04:59;9.43;;;4.25;;
18136;SDS011;9194;42.632;23.298;2023-09-07T11:10:01;7.20;;;5.03;;
18136;SDS011;9194;42.632;23.298;2023-09-07T11:15:05;14.43;;;4.88;;
18136;SDS011;9194;42.632;23.298;2023-09-07T11:20:09;6.38;;;4.63;;
18136;SDS011;9194;42.632;23.298;2023-09-07T11:25:11;7.68;;;4.97;;
18136;SDS011;9194;42.632;23.298;2023-09-07T11:30:15;14.63;;;5.28;;
18136;SDS011;9194;42.632;23.298;2023-09-07T11:35:16;14.88;;;5.40;;
18136;SDS011;9194;42.632;23.298;2023-09-07T11:40:18;8.85;;;5.32;;
18136;SDS011;9194;42.632;23.298;2023-09-07T11:45:19;11.57;;;4.93;;
18136;SDS011;9194;42.632;23.298;2023-09-07T11:50:22;12.20;;;5.82;;
18136;SDS011;9194;42.632;23.298;2023-09-07T11:55:25;8.95;;;5.00;;
18136;SDS011;9194;42.632;23.298;2023-09-07T12:00:26;8.40;;;4.93;;
18136;SDS011;9194;42.632;23.298;2023-09-07T12:05:27;7.78;;;4.55;;
18136;SDS011;9194;42.632;23.298;2023-09-07T12:10:31;13.60;;;5.38;;
18136;SDS011;9194;42.632;23.298;2023-09-07T12:15:32;12.95;;;4.43;;
18136;SDS011;9194;42.632;23.298;2023-09-07T12:20:33;11.68;;;5.10;;
18136;SDS011;9194;42.632;23.298;2023-09-07T12:25:35;5.68;;;4.43;;
18136;SDS011;9194;42.632;23.298;2023-09-07T12:30:37;6.10;;;4.13;;
18136;SDS011;9194;42.632;23.298;2023-09-07T12:35:38;4.97;;;4.20;;
18136;SDS011;9194;42.632;23.298;2023-09-07T12:40:39;6.95;;;4.43;;
18136;SDS011;9194;42.632;23.298;2023-09-07T12:45:41;7.03;;;4.45;;
18136;SDS011;9194;42.632;23.298;2023-09-07T12:50:42;5.88;;;4.65;;
18136;SDS011;9194;42.632;23.298;2023-09-07T12:55:43;4.97;;;4.32;;
18136;SDS011;9194;42.632;23.298;2023-09-07T13:00:45;8.25;;;4.32;;
18136;SDS011;9194;42.632;23.298;2023-09-07T13:05:46;12.77;;;3.88;;
18136;SDS011;9194;42.632;23.298;2023-09-07T13:10:48;8.50;;;4.20;;
18136;SDS011;9194;42.632;23.298;2023-09-07T13:15:49;7.88;;;3.60;;
18136;SDS011;9194;42.632;23.298;2023-09-07T13:20:51;6.78;;;3.85;;
18136;SDS011;9194;42.632;23.298;2023-09-07T13:26:00;8.40;;;4.13;;
18136;SDS011;9194;42.632;23.298;2023-09-07T13:31:01;13.15;;;4.82;;
18136;SDS011;9194;42.632;23.298;2023-09-07T13:36:03;10.75;;;4.38;;
18136;SDS011;9194;42.632;23.298;2023-09-07T13:41:04;7.47;;;4.45;;
18136;SDS011;9194;42.632;23.298;2023-09-07T13:46:06;8.00;;;3.70;;
18136;SDS011;9194;42.632;23.298;2023-09-07T13:51:07;9.63;;;3.88;;
18136;SDS011;9194;42.632;23.298;2023-09-07T13:56:08;10.73;;;4.30;;
18136;SDS011;9194;42.632;23.298;2023-09-07T14:01:09;7.68;;;3.95;;
18136;SDS011;9194;42.632;23.298;2023-09-07T14:06:10;10.38;;;4.05;;
18136;SDS011;9194;42.632;23.298;2023-09-07T14:11:11;6.63;;;4.28;;
18136;SDS011;9194;42.632;23.298;2023-09-07T14:16:13;10.30;;;4.60;;
18136;SDS011;9194;42.632;23.298;2023-09-07T14:21:14;20.00;;;5.22;;
18136;SDS011;9194;42.632;23.298;2023-09-07T14:26:16;12.25;;;3.53;;
18136;SDS011;9194;42.632;23.298;2023-09-07T14:31:17;5.35;;;3.90;;
18136;SDS011;9194;42.632;23.298;2023-09-07T14:36:18;7.18;;;3.97;;
18136;SDS011;9194;42.632;23.298;2023-09-07T14:41:20;10.45;;;3.58;;
18136;SDS011;9194;42.632;23.298;2023-09-07T14:46:22;11.43;;;3.70;;
18136;SDS011;9194;42.632;23.298;2023-09-07T14:51:26;7.40;;;3.90;;
18136;SDS011;9194;42.632;23.298;2023-09-07T14:56:28;12.75;;;4.70;;
18136;SDS011;9194;42.632;23.298;2023-09-07T15:01:29;18.77;;;3.90;;
18136;SDS011;9194;42.632;23.298;2023-09-07T15:06:32;6.60;;;3.65;;
18136;SDS011;9194;42.632;23.298;2023-09-07T15:11:34;5.28;;;3.70;;
18136;SDS011;9194;42.632;23.298;2023-09-07T15:16:35;6.22;;;4.57;;
18136;SDS011;9194;42.632;23.298;2023-09-07T15:21:36;12.75;;;4.30;;
18136;SDS011;9194;42.632;23.298;2023-09-07T15:26:44;6.75;;;4.57;;
18136;SDS011;9194;42.632;23.298;2023-09-07T15:31:46;6.28;;;4.30;;
18136;SDS011;9194;42.632;23.298;2023-09-07T15:36:47;6.60;;;4.22;;
18136;SDS011;9194;42.632;23.298;2023-09-07T15:41:48;8.40;;;4.75;;
18136;SDS011;9194;42.632;23.298;2023-09-07T15:46:49;8.30;;;4.20;;
18136;SDS011;9194;42.632;23.298;2023-09-07T15:51:52;8.13;;;4.60;;
18136;SDS011;9194;42.632;23.298;2023-09-07T15:56:53;11.07;;;4.30;;
18136;SDS011;9194;42.632;23.298;2023-09-07T16:01:54;7.88;;;4.38;;
18136;SDS011;9194;42.632;23.298;2023-09-07T16:06:56;5.20;;;4.13;;
18136;SDS011;9194;42.632;23.298;2023-09-07T16:11:57;11.82;;;5.13;;
18136;SDS011;9194;42.632;23.298;2023-09-07T16:16:58;10.23;;;4.80;;
18136;SDS011;9194;42.632;23.298;2023-09-07T16:22:00;7.28;;;4.95;;
18136;SDS011;9194;42.632;23.298;2023-09-07T16:27:06;10.15;;;4.63;;
18136;SDS011;9194;42.632;23.298;2023-09-07T16:32:07;9.00;;;4.70;;
18136;SDS011;9194;42.632;23.298;2023-09-07T16:37:09;11.15;;;4.72;;
18136;SDS011;9194;42.632;23.298;2023-09-07T16:42:10;10.52;;;4.88;;
18136;SDS011;9194;42.632;23.298;2023-09-07T16:47:13;6.38;;;4.78;;
18136;SDS011;9194;42.632;23.298;2023-09-07T16:52:14;12.70;;;5.10;;
18136;SDS011;9194;42.632;23.298;2023-09-07T16:57:16;13.80;;;4.63;;
18136;SDS011;9194;42.632;23.298;2023-09-07T17:02:17;6.75;;;4.72;;
18136;SDS011;9194;42.632;23.298;2023-09-07T17:07:19;13.05;;;4.22;;
18136;SDS011;9194;42.632;23.298;2023-09-07T17:12:21;10.27;;;4.40;;
18136;SDS011;9194;42.632;23.298;2023-09-07T17:17:22;8.38;;;4.80;;
18136;SDS011;9194;42.632;23.298;2023-09-07T17:22:23;7.25;;;5.35;;
18136;SDS011;9194;42.632;23.298;2023-09-07T17:27:24;5.72;;;3.83;;
18136;SDS011;9194;42.632;23.298;2023-09-07T17:32:26;7.40;;;4.35;;
18136;SDS011;9194;42.632;23.298;2023-09-07T17:37:27;12.13;;;5.05;;
18136;SDS011;9194;42.632;23.298;2023-09-07T17:42:28;15.93;;;4.75;;
18136;SDS011;9194;42.632;23.298;2023-09-07T17:47:30;5.97;;;4.78;;
18136;SDS011;9194;42.632;23.298;2023-09-07T17:52:32;7.75;;;4.78;;
18136;SDS011;9194;42.632;23.298;2023-09-07T17:57:34;14.75;;;4.90;;
18136;SDS011;9194;42.632;23.298;2023-09-07T18:02:35;6.70;;;5.05;;
18136;SDS011;9194;42.632;23.298;2023-09-07T18:07:37;10.88;;;4.85;;
18136;SDS011;9194;42.632;23.298;2023-09-07T18:12:39;6.38;;;4.63;;
18136;SDS011;9194;42.632;23.298;2023-09-07T18:17:40;7.80;;;4.80;;
18136;SDS011;9194;42.632;23.298;2023-09-07T18:22:41;10.68;;;4.80;;
18136;SDS011;9194;42.632;23.298;2023-09-07T18:27:42;5.60;;;4.40;;
18136;SDS011;9194;42.632;23.298;2023-09-07T18:32:43;6.32;;;4.68;;
18136;SDS011;9194;42.632;23.298;2023-09-07T18:37:44;6.40;;;4.30;;
18136;SDS011;9194;42.632;23.298;2023-09-07T18:42:46;9.65;;;4.72;;
18136;SDS011;9194;42.632;23.298;2023-09-07T18:47:47;12.77;;;4.93;;
18136;SDS011;9194;42.632;23.298;2023-09-07T18:52:49;6.53;;;4.07;;
18136;SDS011;9194;42.632;23.298;2023-09-07T18:57:51;9.27;;;4.78;;
18136;SDS011;9194;42.632;23.298;2023-09-07T19:02:52;8.80;;;4.85;;
18136;SDS011;9194;42.632;23.298;2023-09-07T19:07:53;8.38;;;4.68;;
18136;SDS011;9194;42.632;23.298;2023-09-07T19:12:54;9.63;;;4.40;;
18136;SDS011;9194;42.632;23.298;2023-09-07T19:17:56;8.38;;;4.72;;
18136;SDS011;9194;42.632;23.298;2023-09-07T19:22:57;9.23;;;4.40;;
18136;SDS011;9194;42.632;23.298;2023-09-07T19:27:58;7.07;;;4.13;;
18136;SDS011;9194;42.632;23.298;2023-09-07T19:33:00;9.93;;;4.47;;
18136;SDS011;9194;42.632;23.298;2023-09-07T19:38:01;4.85;;;4.38;;
18136;SDS011;9194;42.632;23.298;2023-09-07T19:43:03;7.13;;;4.38;;
18136;SDS011;9194;42.632;23.298;2023-09-07T19:48:04;6.60;;;4.25;;
18136;SDS011;9194;42.632;23.298;2023-09-07T19:53:06;8.30;;;4.90;;
18136;SDS011;9194;42.632;23.298;2023-09-07T19:58:07;10.65;;;4.30;;
18136;SDS011;9194;42.632;23.298;2023-09-07T20:03:09;7.35;;;4.72;;
18136;SDS011;9194;42.632;23.298;2023-09-07T20:08:11;4.82;;;4.30;;
18136;SDS011;9194;42.632;23.298;2023-09-07T20:13:12;6.95;;;4.43;;
18136;SDS011;9194;42.632;23.298;2023-09-07T20:18:13;6.13;;;4.53;;
18136;SDS011;9194;42.632;23.298;2023-09-07T20:23:14;6.28;;;4.45;;
18136;SDS011;9194;42.632;23.298;2023-09-07T20:28:15;5.88;;;4.05;;
18136;SDS011;9194;42.632;23.298;2023-09-07T20:33:17;5.32;;;4.43;;
18136;SDS011;9194;42.632;23.298;2023-09-07T20:38:18;4.95;;;4.38;;
18136;SDS011;9194;42.632;23.298;2023-09-07T20:43:19;8.13;;;4.00;;
18136;SDS011;9194;42.632;23.298;2023-09-07T20:48:24;5.00;;;4.07;;
18136;SDS011;9194;42.632;23.298;2023-09-07T20:53:25;12.38;;;4.50;;
18136;SDS011;9194;42.632;23.298;2023-09-07T20:58:27;6.30;;;4.35;;
18136;SDS011;9194;42.632;23.298;2023-09-07T21:03:29;9.82;;;3.92;;
18136;SDS011;9194;42.632;23.298;2023-09-07T21:08:30;4.72;;;3.85;;
18136;SDS011;9194;42.632;23.298;2023-09-07T21:13:31;10.13;;;4.32;;
18136;SDS011;9194;42.632;23.298;2023-09-07T21:18:33;8.55;;;3.97;;
18136;SDS011;9194;42.632;23.298;2023-09-07T21:23:34;7.43;;;4.18;;
18136;SDS011;9194;42.632;23.298;2023-09-07T21:28:35;6.25;;;3.88;;
18136;SDS011;9194;42.632;23.298;2023-09-07T21:33:36;13.32;;;4.20;;
18136;SDS011;9194;42.632;23.298;2023-09-07T21:38:38;8.88;;;4.22;;
18136;SDS011;9194;42.632;23.298;2023-09-07T21:43:39;5.55;;;4.20;;
18136;SDS011;9194;42.632;23.298;2023-09-07T21:48:40;6.82;;;3.83;;
18136;SDS011;9194;42.632;23.298;2023-09-07T21:53:41;5.20;;;4.28;;
18136;SDS011;9194;42.632;23.298;2023-09-07T21:58:43;4.90;;;4.43;;
18136;SDS011;9194;42.632;23.298;2023-09-07T22:03:44;12.55;;;4.38;;
18136;SDS011;9194;42.632;23.298;2023-09-07T22:08:45;6.35;;;4.63;;
18136;SDS011;9194;42.632;23.298;2023-09-07T22:13:47;8.65;;;4.45;;
18136;SDS011;9194;42.632;23.298;2023-09-07T22:18:48;5.07;;;4.30;;
18136;SDS011;9194;42.632;23.298;2023-09-07T22:23:49;8.32;;;4.07;;
18136;SDS011;9194;42.632;23.298;2023-09-07T22:28:50;6.47;;;4.40;;
18136;SDS011;9194;42.632;23.298;2023-09-07T22:33:52;5.82;;;4.00;;
18136;SDS011;9194;42.632;23.298;2023-09-07T22:38:53;6.00;;;4.18;;
18136;SDS011;9194;42.632;23.298;2023-09-07T22:43:56;10.73;;;4.20;;
18136;SDS011;9194;42.632;23.298;2023-09-07T22:48:57;12.07;;;4.32;;
18136;SDS011;9194;42.632;23.298;2023-09-07T22:53:58;9.25;;;4.72;;
18136;SDS011;9194;42.632;23.298;2023-09-07T22:59:00;10.27;;;5.90;;
18136;SDS011;9194;42.632;23.298;2023-09-07T23:04:01;15.90;;;6.18;;
18136;SDS011;9194;42.632;23.298;2023-09-07T23:09:02;11.73;;;6.03;;
18136;SDS011;9194;42.632;23.298;2023-09-07T23:14:07;13.07;;;6.68;;
18136;SDS011;9194;42.632;23.298;2023-09-07T23:19:08;12.13;;;8.43;;
18136;SDS011;9194;42.632;23.298;2023-09-07T23:24:11;16.15;;;8.32;;
18136;SDS011;9194;42.632;23.298;2023-09-07T23:29:12;13.10;;;8.98;;
18136;SDS011;9194;42.632;23.298;2023-09-07T23:34:13;16.98;;;10.63;;
18136;SDS011;9194;42.632;23.298;2023-09-07T23:39:15;10.90;;;7.75;;
18136;SDS011;9194;42.632;23.298;2023-09-07T23:44:16;11.52;;;8.77;;
18136;SDS011;9194;42.632;23.298;2023-09-07T23:49:17;13.55;;;9.32;;
18136;SDS011;9194;42.632;23.298;2023-09-07T23:54:19;14.68;;;9.38;;
18136;SDS011;9194;42.632;23.298;2023-09-07T23:59:20;17.02;;;7.97;;
